sensor_id;sensor_type;location;lat;lon;timestamp;P1;durP1;ratioP1;P2;durP2;ratioP2
13122;SDS011;6627;50.920;12.050;2023-04-15T00:00:20;16.57;;;13.57;;
13122;SDS011;6627;50.920;12.050;2023-04-15T00:02:48;17.30;;;13.70;;
13122;SDS011;6627;50.920;12.050;2023-04-15T00:05:15;18.60;;;14.47;;
13122;SDS011;6627;50.920;12.050;2023-04-15T00:07:44;15.80;;;13.67;;
13122;SDS011;6627;50.920;12.050;2023-04-15T00:10:13;16.90;;;14.43;;
13122;SDS011;6627;50.920;12.050;2023-04-15T00:12:41;19.73;;;15.67;;
13122;SDS011;6627;50.920;12.050;2023-04-15T00:15:08;21.13;;;15.33;;
13122;SDS011;6627;50.920;12.050;2023-04-15T00:17:36;18.67;;;15.27;;
13122;SDS011;6627;50.920;12.050;2023-04-15T00:20:04;19.63;;;15.23;;
13122;SDS011;6627;50.920;12.050;2023-04-15T00:22:33;17.70;;;14.97;;
13122;SDS011;6627;50.920;12.050;2023-04-15T00:25:00;17.43;;;14.63;;
13122;SDS011;6627;50.920;12.050;2023-04-15T00:27:29;19.47;;;14.93;;
13122;SDS011;6627;50.920;12.050;2023-04-15T00:29:56;17.07;;;14.80;;
13122;SDS011;6627;50.920;12.050;2023-04-15T00:32:23;18.00;;;14.77;;
13122;SDS011;6627;50.920;12.050;2023-04-15T00:34:51;19.57;;;14.77;;
13122;SDS011;6627;50.920;12.050;2023-04-15T00:37:18;16.77;;;14.53;;
13122;SDS011;6627;50.920;12.050;2023-04-15T00:39:45;17.13;;;14.63;;
13122;SDS011;6627;50.920;12.050;2023-04-15T00:42:12;18.53;;;15.13;;
13122;SDS011;6627;50.920;12.050;2023-04-15T00:44:41;21.37;;;15.43;;
13122;SDS011;6627;50.920;12.050;2023-04-15T00:47:08;18.23;;;15.20;;
13122;SDS011;6627;50.920;12.050;2023-04-15T00:49:46;16.17;;;13.73;;
13122;SDS011;6627;50.920;12.050;2023-04-15T00:52:13;18.20;;;14.40;;
13122;SDS011;6627;50.920;12.050;2023-04-15T00:54:41;16.87;;;13.80;;
13122;SDS011;6627;50.920;12.050;2023-04-15T00:57:09;18.00;;;14.70;;
13122;SDS011;6627;50.920;12.050;2023-04-15T00:59:36;18.70;;;15.27;;
13122;SDS011;6627;50.920;12.050;2023-04-15T01:02:05;20.93;;;16.07;;
13122;SDS011;6627;50.920;12.050;2023-04-15T01:04:32;19.37;;;15.20;;
13122;SDS011;6627;50.920;12.050;2023-04-15T01:07:01;21.27;;;15.17;;
13122;SDS011;6627;50.920;12.050;2023-04-15T01:09:28;17.60;;;14.13;;
13122;SDS011;6627;50.920;12.050;2023-04-15T01:11:56;15.27;;;12.97;;
13122;SDS011;6627;50.920;12.050;2023-04-15T01:14:24;15.67;;;13.00;;
13122;SDS011;6627;50.920;12.050;2023-04-15T01:16:51;12.73;;;11.23;;
13122;SDS011;6627;50.920;12.050;2023-04-15T01:19:20;15.17;;;11.23;;
13122;SDS011;6627;50.920;12.050;2023-04-15T01:21:47;17.03;;;13.63;;
13122;SDS011;6627;50.920;12.050;2023-04-15T01:24:15;13.93;;;11.37;;
13122;SDS011;6627;50.920;12.050;2023-04-15T01:26:45;16.07;;;12.30;;
13122;SDS011;6627;50.920;12.050;2023-04-15T01:29:14;14.30;;;12.20;;
13122;SDS011;6627;50.920;12.050;2023-04-15T01:31:48;15.40;;;12.33;;
13122;SDS011;6627;50.920;12.050;2023-04-15T01:34:17;15.17;;;12.07;;
13122;SDS011;6627;50.920;12.050;2023-04-15T01:36:45;15.37;;;12.77;;
13122;SDS011;6627;50.920;12.050;2023-04-15T01:39:12;14.27;;;12.53;;
13122;SDS011;6627;50.920;12.050;2023-04-15T01:41:40;15.40;;;12.37;;
13122;SDS011;6627;50.920;12.050;2023-04-15T01:44:08;15.50;;;12.70;;
13122;SDS011;6627;50.920;12.050;2023-04-15T01:46:36;16.43;;;12.37;;
13122;SDS011;6627;50.920;12.050;2023-04-15T01:49:03;18.43;;;12.20;;
13122;SDS011;6627;50.920;12.050;2023-04-15T01:51:31;13.80;;;11.47;;
13122;SDS011;6627;50.920;12.050;2023-04-15T01:53:58;13.40;;;10.60;;
13122;SDS011;6627;50.920;12.050;2023-04-15T01:56:26;13.20;;;10.63;;
13122;SDS011;6627;50.920;12.050;2023-04-15T01:58:54;12.77;;;10.67;;
13122;SDS011;6627;50.920;12.050;2023-04-15T02:01:23;13.33;;;10.90;;
13122;SDS011;6627;50.920;12.050;2023-04-15T02:03:50;12.80;;;10.60;;
13122;SDS011;6627;50.920;12.050;2023-04-15T02:06:17;13.97;;;10.60;;
13122;SDS011;6627;50.920;12.050;2023-04-15T02:08:45;14.53;;;10.30;;
13122;SDS011;6627;50.920;12.050;2023-04-15T02:11:12;12.53;;;10.87;;
13122;SDS011;6627;50.920;12.050;2023-04-15T02:13:39;11.60;;;9.83;;
13122;SDS011;6627;50.920;12.050;2023-04-15T02:16:14;12.33;;;9.97;;
13122;SDS011;6627;50.920;12.050;2023-04-15T02:18:44;14.50;;;10.13;;
13122;SDS011;6627;50.920;12.050;2023-04-15T02:21:12;14.10;;;9.87;;
13122;SDS011;6627;50.920;12.050;2023-04-15T02:23:39;15.53;;;9.70;;
13122;SDS011;6627;50.920;12.050;2023-04-15T02:26:08;11.87;;;9.70;;
13122;SDS011;6627;50.920;12.050;2023-04-15T02:28:36;12.43;;;9.10;;
13122;SDS011;6627;50.920;12.050;2023-04-15T02:31:04;12.20;;;9.63;;
13122;SDS011;6627;50.920;12.050;2023-04-15T02:33:31;11.00;;;8.67;;
13122;SDS011;6627;50.920;12.050;2023-04-15T02:36:00;10.50;;;8.87;;
13122;SDS011;6627;50.920;12.050;2023-04-15T02:38:27;10.63;;;9.00;;
13122;SDS011;6627;50.920;12.050;2023-04-15T02:40:56;12.23;;;9.50;;
13122;SDS011;6627;50.920;12.050;2023-04-15T02:43:23;14.40;;;8.53;;
13122;SDS011;6627;50.920;12.050;2023-04-15T02:45:51;11.47;;;9.67;;
13122;SDS011;6627;50.920;12.050;2023-04-15T02:48:18;12.30;;;10.40;;
13122;SDS011;6627;50.920;12.050;2023-04-15T02:50:45;12.23;;;10.90;;
13122;SDS011;6627;50.920;12.050;2023-04-15T02:53:14;14.97;;;10.77;;
13122;SDS011;6627;50.920;12.050;2023-04-15T02:55:41;13.80;;;10.83;;
13122;SDS011;6627;50.920;12.050;2023-04-15T02:58:09;14.17;;;11.30;;
13122;SDS011;6627;50.920;12.050;2023-04-15T03:00:36;15.77;;;11.57;;
13122;SDS011;6627;50.920;12.050;2023-04-15T03:03:04;16.03;;;12.60;;
13122;SDS011;6627;50.920;12.050;2023-04-15T03:05:32;16.27;;;12.23;;
13122;SDS011;6627;50.920;12.050;2023-04-15T03:07:59;20.77;;;12.37;;
13122;SDS011;6627;50.920;12.050;2023-04-15T03:10:28;15.93;;;11.73;;
13122;SDS011;6627;50.920;12.050;2023-04-15T03:12:56;15.67;;;10.70;;
13122;SDS011;6627;50.920;12.050;2023-04-15T03:15:23;17.23;;;11.83;;
13122;SDS011;6627;50.920;12.050;2023-04-15T03:17:50;15.20;;;11.97;;
13122;SDS011;6627;50.920;12.050;2023-04-15T03:20:17;15.67;;;11.90;;
13122;SDS011;6627;50.920;12.050;2023-04-15T03:22:44;15.60;;;12.10;;
13122;SDS011;6627;50.920;12.050;2023-04-15T03:25:11;16.00;;;12.37;;
13122;SDS011;6627;50.920;12.050;2023-04-15T03:27:40;16.73;;;13.20;;
13122;SDS011;6627;50.920;12.050;2023-04-15T03:30:07;16.23;;;13.43;;
13122;SDS011;6627;50.920;12.050;2023-04-15T03:32:36;17.70;;;13.23;;
13122;SDS011;6627;50.920;12.050;2023-04-15T03:35:04;15.67;;;12.30;;
13122;SDS011;6627;50.920;12.050;2023-04-15T03:37:31;13.40;;;11.40;;
13122;SDS011;6627;50.920;12.050;2023-04-15T03:39:58;13.53;;;10.30;;
13122;SDS011;6627;50.920;12.050;2023-04-15T03:42:26;13.03;;;9.97;;
13122;SDS011;6627;50.920;12.050;2023-04-15T03:44:54;11.53;;;9.50;;
13122;SDS011;6627;50.920;12.050;2023-04-15T03:47:22;13.50;;;9.80;;
13122;SDS011;6627;50.920;12.050;2023-04-15T03:49:49;11.27;;;9.03;;
13122;SDS011;6627;50.920;12.050;2023-04-15T03:52:16;13.33;;;9.87;;
13122;SDS011;6627;50.920;12.050;2023-04-15T03:54:43;13.03;;;11.37;;
13122;SDS011;6627;50.920;12.050;2023-04-15T03:57:10;12.87;;;10.53;;
13122;SDS011;6627;50.920;12.050;2023-04-15T03:59:38;13.60;;;10.47;;
13122;SDS011;6627;50.920;12.050;2023-04-15T04:02:06;14.20;;;10.87;;
13122;SDS011;6627;50.920;12.050;2023-04-15T04:04:33;11.80;;;10.20;;
13122;SDS011;6627;50.920;12.050;2023-04-15T04:07:01;15.97;;;11.77;;
13122;SDS011;6627;50.920;12.050;2023-04-15T04:09:28;14.50;;;11.67;;
13122;SDS011;6627;50.920;12.050;2023-04-15T04:11:56;14.40;;;11.53;;
13122;SDS011;6627;50.920;12.050;2023-04-15T04:14:24;14.20;;;11.60;;
13122;SDS011;6627;50.920;12.050;2023-04-15T04:16:54;14.17;;;11.97;;
13122;SDS011;6627;50.920;12.050;2023-04-15T04:19:23;14.97;;;10.77;;
13122;SDS011;6627;50.920;12.050;2023-04-15T04:21:50;14.37;;;10.57;;
13122;SDS011;6627;50.920;12.050;2023-04-15T04:24:18;14.17;;;11.57;;
13122;SDS011;6627;50.920;12.050;2023-04-15T04:26:45;14.70;;;11.90;;
13122;SDS011;6627;50.920;12.050;2023-04-15T04:29:12;17.30;;;11.63;;
13122;SDS011;6627;50.920;12.050;2023-04-15T04:31:40;14.40;;;11.57;;
13122;SDS011;6627;50.920;12.050;2023-04-15T04:34:07;12.97;;;10.43;;
13122;SDS011;6627;50.920;12.050;2023-04-15T04:36:36;16.87;;;11.03;;
13122;SDS011;6627;50.920;12.050;2023-04-15T04:39:03;14.43;;;11.73;;
13122;SDS011;6627;50.920;12.050;2023-04-15T04:41:30;16.33;;;12.40;;
13122;SDS011;6627;50.920;12.050;2023-04-15T04:43:57;13.17;;;10.63;;
13122;SDS011;6627;50.920;12.050;2023-04-15T04:46:25;14.07;;;11.13;;
13122;SDS011;6627;50.920;12.050;2023-04-15T04:48:52;15.13;;;11.00;;
13122;SDS011;6627;50.920;12.050;2023-04-15T04:51:20;12.77;;;10.00;;
13122;SDS011;6627;50.920;12.050;2023-04-15T04:53:48;13.03;;;10.53;;
13122;SDS011;6627;50.920;12.050;2023-04-15T04:56:16;15.37;;;10.47;;
13122;SDS011;6627;50.920;12.050;2023-04-15T04:58:43;11.83;;;10.20;;
13122;SDS011;6627;50.920;12.050;2023-04-15T05:01:10;11.30;;;9.63;;
13122;SDS011;6627;50.920;12.050;2023-04-15T05:03:37;12.27;;;9.60;;
13122;SDS011;6627;50.920;12.050;2023-04-15T05:06:05;10.70;;;8.97;;
13122;SDS011;6627;50.920;12.050;2023-04-15T05:08:33;13.30;;;9.93;;
13122;SDS011;6627;50.920;12.050;2023-04-15T05:11:02;12.07;;;9.43;;
13122;SDS011;6627;50.920;12.050;2023-04-15T05:13:29;11.53;;;8.90;;
13122;SDS011;6627;50.920;12.050;2023-04-15T05:15:56;11.53;;;9.17;;
13122;SDS011;6627;50.920;12.050;2023-04-15T05:18:23;9.60;;;8.10;;
13122;SDS011;6627;50.920;12.050;2023-04-15T05:20:50;9.73;;;8.67;;
13122;SDS011;6627;50.920;12.050;2023-04-15T05:23:19;10.23;;;9.13;;
13122;SDS011;6627;50.920;12.050;2023-04-15T05:25:46;10.43;;;8.83;;
13122;SDS011;6627;50.920;12.050;2023-04-15T05:28:14;10.57;;;8.80;;
13122;SDS011;6627;50.920;12.050;2023-04-15T05:30:41;10.33;;;8.47;;
13122;SDS011;6627;50.920;12.050;2023-04-15T05:33:09;10.67;;;8.47;;
13122;SDS011;6627;50.920;12.050;2023-04-15T05:35:36;10.87;;;9.00;;
13122;SDS011;6627;50.920;12.050;2023-04-15T05:38:03;10.43;;;8.30;;
13122;SDS011;6627;50.920;12.050;2023-04-15T05:40:30;11.93;;;8.63;;
13122;SDS011;6627;50.920;12.050;2023-04-15T05:42:59;10.40;;;8.83;;
13122;SDS011;6627;50.920;12.050;2023-04-15T05:45:27;10.63;;;9.07;;
13122;SDS011;6627;50.920;12.050;2023-04-15T05:47:54;11.50;;;9.27;;
13122;SDS011;6627;50.920;12.050;2023-04-15T05:50:21;10.37;;;8.57;;
13122;SDS011;6627;50.920;12.050;2023-04-15T05:52:50;12.37;;;9.93;;
13122;SDS011;6627;50.920;12.050;2023-04-15T05:55:17;11.37;;;9.27;;
13122;SDS011;6627;50.920;12.050;2023-04-15T05:57:45;10.77;;;8.70;;
13122;SDS011;6627;50.920;12.050;2023-04-15T06:00:12;11.77;;;9.43;;
13122;SDS011;6627;50.920;12.050;2023-04-15T06:02:42;9.63;;;8.30;;
13122;SDS011;6627;50.920;12.050;2023-04-15T06:05:09;11.00;;;8.83;;
13122;SDS011;6627;50.920;12.050;2023-04-15T06:07:36;12.40;;;8.53;;
13122;SDS011;6627;50.920;12.050;2023-04-15T06:10:04;11.17;;;9.37;;
13122;SDS011;6627;50.920;12.050;2023-04-15T06:12:33;10.73;;;9.27;;
13122;SDS011;6627;50.920;12.050;2023-04-15T06:15:00;10.70;;;9.23;;
13122;SDS011;6627;50.920;12.050;2023-04-15T06:17:28;10.23;;;8.60;;
13122;SDS011;6627;50.920;12.050;2023-04-15T06:19:56;10.43;;;8.83;;
13122;SDS011;6627;50.920;12.050;2023-04-15T06:22:24;9.43;;;7.87;;
13122;SDS011;6627;50.920;12.050;2023-04-15T06:24:51;9.27;;;7.40;;
13122;SDS011;6627;50.920;12.050;2023-04-15T06:27:18;13.43;;;7.87;;
13122;SDS011;6627;50.920;12.050;2023-04-15T06:29:45;8.43;;;7.53;;
13122;SDS011;6627;50.920;12.050;2023-04-15T06:32:12;10.33;;;7.47;;
13122;SDS011;6627;50.920;12.050;2023-04-15T06:34:39;10.60;;;7.10;;
13122;SDS011;6627;50.920;12.050;2023-04-15T06:37:08;10.80;;;8.07;;
13122;SDS011;6627;50.920;12.050;2023-04-15T06:39:40;13.93;;;7.60;;
13122;SDS011;6627;50.920;12.050;2023-04-15T06:42:08;8.67;;;7.57;;
13122;SDS011;6627;50.920;12.050;2023-04-15T06:44:36;9.77;;;7.00;;
13122;SDS011;6627;50.920;12.050;2023-04-15T06:47:03;10.30;;;7.40;;
13122;SDS011;6627;50.920;12.050;2023-04-15T06:49:31;9.17;;;7.17;;
13122;SDS011;6627;50.920;12.050;2023-04-15T06:51:59;9.93;;;6.80;;
13122;SDS011;6627;50.920;12.050;2023-04-15T06:54:28;10.27;;;6.80;;
13122;SDS011;6627;50.920;12.050;2023-04-15T06:56:55;8.90;;;7.50;;
13122;SDS011;6627;50.920;12.050;2023-04-15T06:59:22;9.03;;;7.60;;
13122;SDS011;6627;50.920;12.050;2023-04-15T07:01:50;10.30;;;7.37;;
13122;SDS011;6627;50.920;12.050;2023-04-15T07:04:17;9.53;;;7.33;;
13122;SDS011;6627;50.920;12.050;2023-04-15T07:06:44;10.13;;;7.43;;
13122;SDS011;6627;50.920;12.050;2023-04-15T07:09:12;7.50;;;5.93;;
13122;SDS011;6627;50.920;12.050;2023-04-15T07:11:41;7.63;;;6.83;;
13122;SDS011;6627;50.920;12.050;2023-04-15T07:14:08;10.17;;;6.90;;
13122;SDS011;6627;50.920;12.050;2023-04-15T07:16:35;7.60;;;6.40;;
13122;SDS011;6627;50.920;12.050;2023-04-15T07:19:02;8.97;;;6.20;;
13122;SDS011;6627;50.920;12.050;2023-04-15T07:21:29;9.40;;;6.30;;
13122;SDS011;6627;50.920;12.050;2023-04-15T07:23:56;7.93;;;6.47;;
13122;SDS011;6627;50.920;12.050;2023-04-15T07:26:24;9.83;;;6.13;;
13122;SDS011;6627;50.920;12.050;2023-04-15T07:28:52;8.00;;;6.47;;
13122;SDS011;6627;50.920;12.050;2023-04-15T07:31:19;10.87;;;7.00;;
13122;SDS011;6627;50.920;12.050;2023-04-15T07:33:47;8.80;;;5.90;;
13122;SDS011;6627;50.920;12.050;2023-04-15T07:36:14;7.40;;;6.57;;
13122;SDS011;6627;50.920;12.050;2023-04-15T07:38:41;9.63;;;6.00;;
13122;SDS011;6627;50.920;12.050;2023-04-15T07:41:08;12.80;;;6.37;;
13122;SDS011;6627;50.920;12.050;2023-04-15T07:43:36;6.83;;;5.87;;
13122;SDS011;6627;50.920;12.050;2023-04-15T07:46:05;9.07;;;6.33;;
13122;SDS011;6627;50.920;12.050;2023-04-15T07:48:32;14.00;;;7.40;;
13122;SDS011;6627;50.920;12.050;2023-04-15T07:50:59;12.27;;;8.07;;
13122;SDS011;6627;50.920;12.050;2023-04-15T07:53:28;16.00;;;8.53;;
13122;SDS011;6627;50.920;12.050;2023-04-15T07:55:55;18.93;;;9.27;;
13122;SDS011;6627;50.920;12.050;2023-04-15T07:58:22;14.40;;;8.20;;
13122;SDS011;6627;50.920;12.050;2023-04-15T08:00:50;14.20;;;8.80;;
13122;SDS011;6627;50.920;12.050;2023-04-15T08:03:18;11.63;;;8.73;;
13122;SDS011;6627;50.920;12.050;2023-04-15T08:05:47;16.77;;;7.83;;
13122;SDS011;6627;50.920;12.050;2023-04-15T08:08:14;8.97;;;7.10;;
13122;SDS011;6627;50.920;12.050;2023-04-15T08:10:41;7.53;;;6.03;;
13122;SDS011;6627;50.920;12.050;2023-04-15T08:13:08;8.20;;;5.87;;
13122;SDS011;6627;50.920;12.050;2023-04-15T08:15:36;5.50;;;5.00;;
13122;SDS011;6627;50.920;12.050;2023-04-15T08:18:05;6.50;;;5.53;;
13122;SDS011;6627;50.920;12.050;2023-04-15T08:20:33;6.63;;;5.43;;
13122;SDS011;6627;50.920;12.050;2023-04-15T08:23:01;6.00;;;5.10;;
13122;SDS011;6627;50.920;12.050;2023-04-15T08:25:29;6.87;;;5.13;;
13122;SDS011;6627;50.920;12.050;2023-04-15T08:27:57;6.93;;;5.10;;
13122;SDS011;6627;50.920;12.050;2023-04-15T08:30:25;6.50;;;5.07;;
13122;SDS011;6627;50.920;12.050;2023-04-15T08:32:52;6.17;;;5.57;;
13122;SDS011;6627;50.920;12.050;2023-04-15T08:35:19;6.13;;;5.53;;
13122;SDS011;6627;50.920;12.050;2023-04-15T08:37:49;8.50;;;5.80;;
13122;SDS011;6627;50.920;12.050;2023-04-15T08:40:16;8.07;;;6.17;;
13122;SDS011;6627;50.920;12.050;2023-04-15T08:42:44;7.43;;;4.87;;
13122;SDS011;6627;50.920;12.050;2023-04-15T08:45:18;8.97;;;4.77;;
13122;SDS011;6627;50.920;12.050;2023-04-15T08:47:46;7.37;;;5.00;;
13122;SDS011;6627;50.920;12.050;2023-04-15T08:50:20;4.67;;;4.23;;
13122;SDS011;6627;50.920;12.050;2023-04-15T08:52:53;4.87;;;4.30;;
13122;SDS011;6627;50.920;12.050;2023-04-15T08:55:22;4.20;;;3.80;;
13122;SDS011;6627;50.920;12.050;2023-04-15T08:57:50;4.60;;;4.10;;
13122;SDS011;6627;50.920;12.050;2023-04-15T09:00:17;5.37;;;4.33;;
13122;SDS011;6627;50.920;12.050;2023-04-15T09:02:45;5.07;;;4.57;;
13122;SDS011;6627;50.920;12.050;2023-04-15T09:05:13;5.90;;;4.60;;
13122;SDS011;6627;50.920;12.050;2023-04-15T09:07:40;5.77;;;5.17;;
13122;SDS011;6627;50.920;12.050;2023-04-15T09:10:09;4.03;;;3.63;;
13122;SDS011;6627;50.920;12.050;2023-04-15T09:12:38;5.30;;;4.07;;
13122;SDS011;6627;50.920;12.050;2023-04-15T09:15:07;4.30;;;3.90;;
13122;SDS011;6627;50.920;12.050;2023-04-15T09:17:40;5.20;;;3.67;;
13122;SDS011;6627;50.920;12.050;2023-04-15T09:20:10;5.00;;;4.50;;
13122;SDS011;6627;50.920;12.050;2023-04-15T09:22:39;5.50;;;3.73;;
13122;SDS011;6627;50.920;12.050;2023-04-15T09:27:58;3.57;;;3.27;;
13122;SDS011;6627;50.920;12.050;2023-04-15T09:30:30;4.30;;;3.90;;
13122;SDS011;6627;50.920;12.050;2023-04-15T09:32:58;4.17;;;3.77;;
13122;SDS011;6627;50.920;12.050;2023-04-15T09:35:27;3.83;;;3.43;;
13122;SDS011;6627;50.920;12.050;2023-04-15T09:38:00;4.10;;;3.70;;
13122;SDS011;6627;50.920;12.050;2023-04-15T09:40:32;3.60;;;3.20;;
13122;SDS011;6627;50.920;12.050;2023-04-15T09:43:02;4.07;;;3.30;;
13122;SDS011;6627;50.920;12.050;2023-04-15T09:45:31;5.10;;;3.37;;
13122;SDS011;6627;50.920;12.050;2023-04-15T09:48:13;7.17;;;2.97;;
13122;SDS011;6627;50.920;12.050;2023-04-15T09:50:43;5.03;;;3.10;;
13122;SDS011;6627;50.920;12.050;2023-04-15T09:53:10;4.50;;;3.17;;
13122;SDS011;6627;50.920;12.050;2023-04-15T09:55:45;8.67;;;2.93;;
13122;SDS011;6627;50.920;12.050;2023-04-15T09:58:19;3.10;;;2.80;;
13122;SDS011;6627;50.920;12.050;2023-04-15T10:00:49;4.23;;;3.20;;
13122;SDS011;6627;50.920;12.050;2023-04-15T10:03:19;3.60;;;3.20;;
13122;SDS011;6627;50.920;12.050;2023-04-15T10:05:48;3.37;;;3.07;;
13122;SDS011;6627;50.920;12.050;2023-04-15T10:08:17;3.77;;;3.23;;
13122;SDS011;6627;50.920;12.050;2023-04-15T10:10:47;6.93;;;3.30;;
13122;SDS011;6627;50.920;12.050;2023-04-15T10:13:16;5.33;;;3.00;;
13122;SDS011;6627;50.920;12.050;2023-04-15T10:15:48;5.10;;;3.00;;
13122;SDS011;6627;50.920;12.050;2023-04-15T10:18:19;6.70;;;3.10;;
13122;SDS011;6627;50.920;12.050;2023-04-15T10:20:50;4.67;;;3.00;;
13122;SDS011;6627;50.920;12.050;2023-04-15T10:23:19;5.00;;;3.07;;
13122;SDS011;6627;50.920;12.050;2023-04-15T10:25:52;3.17;;;2.87;;
13122;SDS011;6627;50.920;12.050;2023-04-15T10:28:19;3.60;;;2.30;;
13122;SDS011;6627;50.920;12.050;2023-04-15T10:30:53;2.63;;;2.40;;
13122;SDS011;6627;50.920;12.050;2023-04-15T10:33:22;2.80;;;2.50;;
13122;SDS011;6627;50.920;12.050;2023-04-15T10:35:51;2.30;;;2.10;;
13122;SDS011;6627;50.920;12.050;2023-04-15T10:38:30;2.60;;;2.40;;
13122;SDS011;6627;50.920;12.050;2023-04-15T10:41:14;4.00;;;2.50;;
13122;SDS011;6627;50.920;12.050;2023-04-15T10:43:44;4.93;;;2.43;;
13122;SDS011;6627;50.920;12.050;2023-04-15T10:46:22;2.57;;;2.00;;
13122;SDS011;6627;50.920;12.050;2023-04-15T10:49:06;3.77;;;2.03;;
13122;SDS011;6627;50.920;12.050;2023-04-15T10:51:36;2.47;;;2.03;;
13122;SDS011;6627;50.920;12.050;2023-04-15T10:54:07;4.10;;;2.20;;
13122;SDS011;6627;50.920;12.050;2023-04-15T10:56:41;5.23;;;2.40;;
13122;SDS011;6627;50.920;12.050;2023-04-15T10:59:09;4.60;;;2.60;;
13122;SDS011;6627;50.920;12.050;2023-04-15T11:01:49;3.53;;;2.60;;
13122;SDS011;6627;50.920;12.050;2023-04-15T11:07:32;4.60;;;2.80;;
13122;SDS011;6627;50.920;12.050;2023-04-15T11:13:23;3.07;;;2.77;;
13122;SDS011;6627;50.920;12.050;2023-04-15T11:15:56;3.37;;;3.00;;
13122;SDS011;6627;50.920;12.050;2023-04-15T11:18:30;8.53;;;3.10;;
13122;SDS011;6627;50.920;12.050;2023-04-15T11:21:00;3.57;;;3.03;;
13122;SDS011;6627;50.920;12.050;2023-04-15T11:23:31;4.73;;;3.07;;
13122;SDS011;6627;50.920;12.050;2023-04-15T11:26:01;4.53;;;3.33;;
13122;SDS011;6627;50.920;12.050;2023-04-15T11:28:35;4.30;;;3.10;;
13122;SDS011;6627;50.920;12.050;2023-04-15T11:31:05;4.37;;;3.50;;
13122;SDS011;6627;50.920;12.050;2023-04-15T11:33:36;4.37;;;2.80;;
13122;SDS011;6627;50.920;12.050;2023-04-15T11:36:10;3.23;;;2.93;;
13122;SDS011;6627;50.920;12.050;2023-04-15T11:38:41;5.37;;;2.97;;
13122;SDS011;6627;50.920;12.050;2023-04-15T11:41:10;3.53;;;3.13;;
13122;SDS011;6627;50.920;12.050;2023-04-15T11:43:39;5.57;;;3.40;;
13122;SDS011;6627;50.920;12.050;2023-04-15T11:46:06;3.90;;;3.50;;
13122;SDS011;6627;50.920;12.050;2023-04-15T11:48:34;4.03;;;3.63;;
13122;SDS011;6627;50.920;12.050;2023-04-15T11:51:02;3.57;;;3.27;;
13122;SDS011;6627;50.920;12.050;2023-04-15T11:53:36;4.53;;;4.03;;
13122;SDS011;6627;50.920;12.050;2023-04-15T11:56:10;6.77;;;6.03;;
13122;SDS011;6627;50.920;12.050;2023-04-15T11:58:45;5.50;;;3.80;;
13122;SDS011;6627;50.920;12.050;2023-04-15T12:01:15;4.87;;;3.87;;
13122;SDS011;6627;50.920;12.050;2023-04-15T12:04:04;5.20;;;4.67;;
13122;SDS011;6627;50.920;12.050;2023-04-15T12:06:37;6.10;;;5.50;;
13122;SDS011;6627;50.920;12.050;2023-04-15T12:09:09;5.77;;;4.90;;
13122;SDS011;6627;50.920;12.050;2023-04-15T12:11:39;4.90;;;4.07;;
13122;SDS011;6627;50.920;12.050;2023-04-15T12:14:11;7.97;;;5.40;;
13122;SDS011;6627;50.920;12.050;2023-04-15T12:16:47;5.00;;;4.50;;
13122;SDS011;6627;50.920;12.050;2023-04-15T12:19:24;4.60;;;3.70;;
13122;SDS011;6627;50.920;12.050;2023-04-15T12:21:56;6.10;;;3.30;;
13122;SDS011;6627;50.920;12.050;2023-04-15T12:24:25;3.73;;;3.43;;
13122;SDS011;6627;50.920;12.050;2023-04-15T12:26:54;4.30;;;3.90;;
13122;SDS011;6627;50.920;12.050;2023-04-15T12:29:25;5.40;;;4.90;;
13122;SDS011;6627;50.920;12.050;2023-04-15T12:31:54;4.20;;;3.73;;
13122;SDS011;6627;50.920;12.050;2023-04-15T12:34:27;4.43;;;3.40;;
13122;SDS011;6627;50.920;12.050;2023-04-15T12:36:55;3.70;;;3.40;;
13122;SDS011;6627;50.920;12.050;2023-04-15T12:39:25;4.87;;;3.37;;
13122;SDS011;6627;50.920;12.050;2023-04-15T12:41:56;4.60;;;2.97;;
13122;SDS011;6627;50.920;12.050;2023-04-15T12:44:26;3.40;;;3.10;;
13122;SDS011;6627;50.920;12.050;2023-04-15T12:46:54;4.33;;;2.97;;
13122;SDS011;6627;50.920;12.050;2023-04-15T12:49:22;4.37;;;3.03;;
13122;SDS011;6627;50.920;12.050;2023-04-15T12:51:51;5.60;;;3.40;;
13122;SDS011;6627;50.920;12.050;2023-04-15T12:54:22;5.93;;;3.27;;
13122;SDS011;6627;50.920;12.050;2023-04-15T12:56:49;5.30;;;4.57;;
13122;SDS011;6627;50.920;12.050;2023-04-15T12:59:29;5.40;;;3.80;;
13122;SDS011;6627;50.920;12.050;2023-04-15T13:01:56;5.53;;;4.30;;
13122;SDS011;6627;50.920;12.050;2023-04-15T13:04:25;4.67;;;3.70;;
13122;SDS011;6627;50.920;12.050;2023-04-15T13:06:55;4.73;;;3.67;;
13122;SDS011;6627;50.920;12.050;2023-04-15T13:09:22;5.97;;;4.80;;
13122;SDS011;6627;50.920;12.050;2023-04-15T13:11:49;6.00;;;4.53;;
13122;SDS011;6627;50.920;12.050;2023-04-15T13:14:17;6.63;;;5.50;;
13122;SDS011;6627;50.920;12.050;2023-04-15T13:16:45;9.50;;;5.23;;
13122;SDS011;6627;50.920;12.050;2023-04-15T13:19:12;6.77;;;4.40;;
13122;SDS011;6627;50.920;12.050;2023-04-15T13:21:40;5.27;;;4.23;;
13122;SDS011;6627;50.920;12.050;2023-04-15T13:24:09;5.07;;;4.20;;
13122;SDS011;6627;50.920;12.050;2023-04-15T13:26:36;4.20;;;3.77;;
13122;SDS011;6627;50.920;12.050;2023-04-15T13:29:04;4.17;;;3.77;;
13122;SDS011;6627;50.920;12.050;2023-04-15T13:31:31;4.23;;;3.83;;
13122;SDS011;6627;50.920;12.050;2023-04-15T13:34:00;4.23;;;3.83;;
13122;SDS011;6627;50.920;12.050;2023-04-15T13:36:27;4.60;;;3.73;;
13122;SDS011;6627;50.920;12.050;2023-04-15T13:38:54;4.47;;;4.00;;
13122;SDS011;6627;50.920;12.050;2023-04-15T13:41:22;4.23;;;3.83;;
13122;SDS011;6627;50.920;12.050;2023-04-15T13:43:49;4.37;;;3.97;;
13122;SDS011;6627;50.920;12.050;2023-04-15T13:46:16;4.50;;;4.10;;
13122;SDS011;6627;50.920;12.050;2023-04-15T13:48:43;4.57;;;4.17;;
13122;SDS011;6627;50.920;12.050;2023-04-15T13:51:12;5.10;;;4.50;;
13122;SDS011;6627;50.920;12.050;2023-04-15T13:53:39;7.47;;;4.50;;
13122;SDS011;6627;50.920;12.050;2023-04-15T13:56:06;7.30;;;4.90;;
13122;SDS011;6627;50.920;12.050;2023-04-15T13:58:34;8.07;;;5.47;;
13122;SDS011;6627;50.920;12.050;2023-04-15T14:01:02;6.53;;;5.83;;
13122;SDS011;6627;50.920;12.050;2023-04-15T14:03:29;6.63;;;5.87;;
13122;SDS011;6627;50.920;12.050;2023-04-15T14:05:56;9.90;;;6.30;;
13122;SDS011;6627;50.920;12.050;2023-04-15T14:08:26;6.13;;;5.53;;
13122;SDS011;6627;50.920;12.050;2023-04-15T14:10:54;7.30;;;6.03;;
13122;SDS011;6627;50.920;12.050;2023-04-15T14:13:22;6.90;;;6.20;;
13122;SDS011;6627;50.920;12.050;2023-04-15T14:15:50;7.27;;;6.50;;
13122;SDS011;6627;50.920;12.050;2023-04-15T14:18:17;6.93;;;6.17;;
13122;SDS011;6627;50.920;12.050;2023-04-15T14:20:44;8.90;;;6.80;;
13122;SDS011;6627;50.920;12.050;2023-04-15T14:23:11;13.63;;;10.87;;
13122;SDS011;6627;50.920;12.050;2023-04-15T14:25:41;8.77;;;6.70;;
13122;SDS011;6627;50.920;12.050;2023-04-15T14:28:09;8.73;;;7.87;;
13122;SDS011;6627;50.920;12.050;2023-04-15T14:30:36;6.93;;;6.33;;
13122;SDS011;6627;50.920;12.050;2023-04-15T14:33:03;9.63;;;8.33;;
13122;SDS011;6627;50.920;12.050;2023-04-15T14:35:30;11.13;;;7.53;;
13122;SDS011;6627;50.920;12.050;2023-04-15T14:37:57;9.83;;;7.07;;
13122;SDS011;6627;50.920;12.050;2023-04-15T14:40:25;10.47;;;8.83;;
13122;SDS011;6627;50.920;12.050;2023-04-15T14:42:53;13.30;;;11.90;;
13122;SDS011;6627;50.920;12.050;2023-04-15T14:45:20;19.50;;;15.03;;
13122;SDS011;6627;50.920;12.050;2023-04-15T14:47:48;13.30;;;11.90;;
13122;SDS011;6627;50.920;12.050;2023-04-15T14:50:15;16.50;;;12.50;;
13122;SDS011;6627;50.920;12.050;2023-04-15T14:52:43;16.13;;;14.43;;